sensor_id;sensor_type;location;lat;lon;timestamp;P1;durP1;ratioP1;P2;durP2;ratioP2
62711;SDS011;48772;55.586;37.730;2023-11-19T00:01:33;33.70;;;14.05;;
62711;SDS011;48772;55.586;37.730;2023-11-19T00:03:59;28.07;;;14.70;;
62711;SDS011;48772;55.586;37.730;2023-11-19T00:06:24;32.47;;;13.77;;
62711;SDS011;48772;55.586;37.730;2023-11-19T00:08:51;43.40;;;13.80;;
62711;SDS011;48772;55.586;37.730;2023-11-19T00:11:17;29.73;;;14.13;;
62711;SDS011;48772;55.586;37.730;2023-11-19T00:13:42;32.47;;;13.50;;
62711;SDS011;48772;55.586;37.730;2023-11-19T00:16:08;32.53;;;12.97;;
62711;SDS011;48772;55.586;37.730;2023-11-19T00:18:35;28.30;;;12.07;;
62711;SDS011;48772;55.586;37.730;2023-11-19T00:21:05;29.20;;;13.53;;
62711;SDS011;48772;55.586;37.730;2023-11-19T00:23:33;31.30;;;14.40;;
62711;SDS011;48772;55.586;37.730;2023-11-19T00:25:59;27.52;;;11.65;;
62711;SDS011;48772;55.586;37.730;2023-11-19T00:28:25;28.40;;;14.07;;
62711;SDS011;48772;55.586;37.730;2023-11-19T00:30:51;30.37;;;13.67;;
62711;SDS011;48772;55.586;37.730;2023-11-19T00:33:17;36.03;;;14.37;;
62711;SDS011;48772;55.586;37.730;2023-11-19T00:35:43;28.07;;;13.17;;
62711;SDS011;48772;55.586;37.730;2023-11-19T00:38:09;31.17;;;12.93;;
62711;SDS011;48772;55.586;37.730;2023-11-19T00:40:35;28.93;;;12.93;;
62711;SDS011;48772;55.586;37.730;2023-11-19T00:43:01;27.07;;;12.10;;
62711;SDS011;48772;55.586;37.730;2023-11-19T00:45:27;30.97;;;13.17;;
62711;SDS011;48772;55.586;37.730;2023-11-19T00:47:53;34.60;;;12.33;;
62711;SDS011;48772;55.586;37.730;2023-11-19T00:50:19;39.05;;;14.07;;
62711;SDS011;48772;55.586;37.730;2023-11-19T00:52:46;26.23;;;11.77;;
62711;SDS011;48772;55.586;37.730;2023-11-19T00:55:12;35.77;;;13.83;;
62711;SDS011;48772;55.586;37.730;2023-11-19T00:57:40;27.27;;;14.33;;
62711;SDS011;48772;55.586;37.730;2023-11-19T01:00:06;27.70;;;12.37;;
62711;SDS011;48772;55.586;37.730;2023-11-19T01:02:40;28.40;;;10.47;;
62711;SDS011;48772;55.586;37.730;2023-11-19T01:05:07;22.73;;;8.60;;
62711;SDS011;48772;55.586;37.730;2023-11-19T01:07:35;24.87;;;10.17;;
62711;SDS011;48772;55.586;37.730;2023-11-19T01:10:01;21.43;;;10.00;;
62711;SDS011;48772;55.586;37.730;2023-11-19T01:12:29;22.47;;;10.73;;
62711;SDS011;48772;55.586;37.730;2023-11-19T01:14:56;20.60;;;9.67;;
62711;SDS011;48772;55.586;37.730;2023-11-19T01:17:23;20.57;;;10.03;;
62711;SDS011;48772;55.586;37.730;2023-11-19T01:19:49;17.00;;;8.50;;
62711;SDS011;48772;55.586;37.730;2023-11-19T01:22:15;20.27;;;10.13;;
62711;SDS011;48772;55.586;37.730;2023-11-19T01:24:42;21.20;;;10.60;;
62711;SDS011;48772;55.586;37.730;2023-11-19T01:27:08;21.83;;;10.73;;
62711;SDS011;48772;55.586;37.730;2023-11-19T01:29:33;19.48;;;9.20;;
62711;SDS011;48772;55.586;37.730;2023-11-19T01:31:59;23.10;;;10.30;;
62711;SDS011;48772;55.586;37.730;2023-11-19T01:34:25;30.73;;;10.87;;
62711;SDS011;48772;55.586;37.730;2023-11-19T01:36:51;28.40;;;12.27;;
62711;SDS011;48772;55.586;37.730;2023-11-19T01:39:17;31.47;;;14.73;;
62711;SDS011;48772;55.586;37.730;2023-11-19T01:41:43;36.07;;;13.67;;
62711;SDS011;48772;55.586;37.730;2023-11-19T01:44:09;28.83;;;12.97;;
62711;SDS011;48772;55.586;37.730;2023-11-19T01:46:36;30.53;;;13.53;;
62711;SDS011;48772;55.586;37.730;2023-11-19T01:49:02;25.33;;;12.80;;
62711;SDS011;48772;55.586;37.730;2023-11-19T01:51:31;24.63;;;13.30;;
62711;SDS011;48772;55.586;37.730;2023-11-19T01:53:57;25.40;;;11.73;;
62711;SDS011;48772;55.586;37.730;2023-11-19T01:56:24;30.03;;;14.37;;
62711;SDS011;48772;55.586;37.730;2023-11-19T01:58:53;35.73;;;15.90;;
62711;SDS011;48772;55.586;37.730;2023-11-19T02:01:21;32.13;;;15.20;;
62711;SDS011;48772;55.586;37.730;2023-11-19T02:03:47;33.30;;;14.23;;
62711;SDS011;48772;55.586;37.730;2023-11-19T02:06:13;29.83;;;13.23;;
62711;SDS011;48772;55.586;37.730;2023-11-19T02:08:41;33.17;;;14.33;;
62711;SDS011;48772;55.586;37.730;2023-11-19T02:11:09;30.57;;;13.90;;
62711;SDS011;48772;55.586;37.730;2023-11-19T02:13:36;27.40;;;13.40;;
62711;SDS011;48772;55.586;37.730;2023-11-19T02:16:03;32.10;;;13.43;;
62711;SDS011;48772;55.586;37.730;2023-11-19T02:18:30;27.92;;;12.57;;
62711;SDS011;48772;55.586;37.730;2023-11-19T02:20:57;27.10;;;12.17;;
62711;SDS011;48772;55.586;37.730;2023-11-19T02:23:26;26.33;;;12.20;;
62711;SDS011;48772;55.586;37.730;2023-11-19T02:26:14;29.20;;;12.03;;
62711;SDS011;48772;55.586;37.730;2023-11-19T02:28:58;27.95;;;13.60;;
62711;SDS011;48772;55.586;37.730;2023-11-19T02:31:24;25.67;;;11.87;;
62711;SDS011;48772;55.586;37.730;2023-11-19T02:33:52;23.90;;;11.73;;
62711;SDS011;48772;55.586;37.730;2023-11-19T02:36:18;25.50;;;13.03;;
62711;SDS011;48772;55.586;37.730;2023-11-19T02:38:44;26.20;;;13.20;;
62711;SDS011;48772;55.586;37.730;2023-11-19T02:41:10;26.80;;;13.47;;
62711;SDS011;48772;55.586;37.730;2023-11-19T02:43:37;27.37;;;13.67;;
62711;SDS011;48772;55.586;37.730;2023-11-19T02:46:04;27.93;;;13.90;;
62711;SDS011;48772;55.586;37.730;2023-11-19T02:48:34;33.17;;;15.10;;
62711;SDS011;48772;55.586;37.730;2023-11-19T02:51:04;33.40;;;14.70;;
62711;SDS011;48772;55.586;37.730;2023-11-19T02:53:34;38.25;;;15.40;;
62711;SDS011;48772;55.586;37.730;2023-11-19T02:56:00;34.47;;;14.87;;
62711;SDS011;48772;55.586;37.730;2023-11-19T02:58:31;35.10;;;16.47;;
62711;SDS011;48772;55.586;37.730;2023-11-19T03:00:57;37.57;;;16.70;;
62711;SDS011;48772;55.586;37.730;2023-11-19T03:03:25;38.60;;;16.93;;
62711;SDS011;48772;55.586;37.730;2023-11-19T03:05:59;30.30;;;13.83;;
62711;SDS011;48772;55.586;37.730;2023-11-19T03:08:25;38.10;;;17.17;;
62711;SDS011;48772;55.586;37.730;2023-11-19T03:10:51;39.53;;;18.77;;
62711;SDS011;48772;55.586;37.730;2023-11-19T03:13:17;36.07;;;17.17;;
62711;SDS011;48772;55.586;37.730;2023-11-19T03:15:43;32.87;;;15.07;;
62711;SDS011;48772;55.586;37.730;2023-11-19T03:18:09;37.77;;;17.10;;
62711;SDS011;48772;55.586;37.730;2023-11-19T03:20:35;33.20;;;14.80;;
62711;SDS011;48772;55.586;37.730;2023-11-19T03:23:01;35.70;;;15.77;;
62711;SDS011;48772;55.586;37.730;2023-11-19T03:25:27;29.60;;;14.23;;
62711;SDS011;48772;55.586;37.730;2023-11-19T03:27:59;37.30;;;15.83;;
62711;SDS011;48772;55.586;37.730;2023-11-19T03:30:29;32.50;;;16.13;;
62711;SDS011;48772;55.586;37.730;2023-11-19T03:32:56;35.40;;;14.93;;
62711;SDS011;48772;55.586;37.730;2023-11-19T03:35:23;37.30;;;15.83;;
62711;SDS011;48772;55.586;37.730;2023-11-19T03:37:50;40.57;;;16.50;;
62711;SDS011;48772;55.586;37.730;2023-11-19T03:40:16;35.27;;;14.80;;
62711;SDS011;48772;55.586;37.730;2023-11-19T03:42:46;39.97;;;15.80;;
62711;SDS011;48772;55.586;37.730;2023-11-19T03:45:12;39.37;;;16.37;;
62711;SDS011;48772;55.586;37.730;2023-11-19T03:47:38;38.77;;;17.03;;
62711;SDS011;48772;55.586;37.730;2023-11-19T03:50:05;45.27;;;17.80;;
62711;SDS011;48772;55.586;37.730;2023-11-19T03:52:33;38.13;;;16.73;;
62711;SDS011;48772;55.586;37.730;2023-11-19T03:54:59;48.00;;;17.73;;
62711;SDS011;48772;55.586;37.730;2023-11-19T03:57:25;40.77;;;17.90;;
62711;SDS011;48772;55.586;37.730;2023-11-19T03:59:52;36.37;;;17.13;;
62711;SDS011;48772;55.586;37.730;2023-11-19T04:02:17;38.07;;;16.90;;
62711;SDS011;48772;55.586;37.730;2023-11-19T04:04:43;36.60;;;15.63;;
62711;SDS011;48772;55.586;37.730;2023-11-19T04:07:09;43.27;;;17.70;;
62711;SDS011;48772;55.586;37.730;2023-11-19T04:09:35;41.97;;;17.13;;
62711;SDS011;48772;55.586;37.730;2023-11-19T04:12:03;41.97;;;17.00;;
62711;SDS011;48772;55.586;37.730;2023-11-19T04:14:29;34.80;;;16.17;;
62711;SDS011;48772;55.586;37.730;2023-11-19T04:16:55;41.53;;;16.47;;
62711;SDS011;48772;55.586;37.730;2023-11-19T04:19:21;42.43;;;17.13;;
62711;SDS011;48772;55.586;37.730;2023-11-19T04:21:47;35.83;;;17.60;;
62711;SDS011;48772;55.586;37.730;2023-11-19T04:24:13;40.93;;;16.80;;
62711;SDS011;48772;55.586;37.730;2023-11-19T04:26:41;39.40;;;16.63;;
62711;SDS011;48772;55.586;37.730;2023-11-19T04:29:13;35.67;;;15.50;;
62711;SDS011;48772;55.586;37.730;2023-11-19T04:31:42;42.87;;;19.13;;
62711;SDS011;48772;55.586;37.730;2023-11-19T04:34:09;41.17;;;17.80;;
62711;SDS011;48772;55.586;37.730;2023-11-19T04:36:36;31.17;;;14.77;;
62711;SDS011;48772;55.586;37.730;2023-11-19T04:39:03;34.00;;;14.03;;
62711;SDS011;48772;55.586;37.730;2023-11-19T04:41:45;28.43;;;13.20;;
62711;SDS011;48772;55.586;37.730;2023-11-19T04:44:18;33.97;;;14.30;;
62711;SDS011;48772;55.586;37.730;2023-11-19T04:46:44;34.20;;;15.97;;
62711;SDS011;48772;55.586;37.730;2023-11-19T04:49:11;27.37;;;8.53;;
62711;SDS011;48772;55.586;37.730;2023-11-19T04:51:38;25.53;;;10.53;;
62711;SDS011;48772;55.586;37.730;2023-11-19T04:54:09;33.60;;;14.33;;
62711;SDS011;48772;55.586;37.730;2023-11-19T04:56:36;33.37;;;12.60;;
62711;SDS011;48772;55.586;37.730;2023-11-19T04:59:05;40.70;;;15.20;;
62711;SDS011;48772;55.586;37.730;2023-11-19T05:01:32;33.63;;;15.47;;
62711;SDS011;48772;55.586;37.730;2023-11-19T05:04:17;32.27;;;14.93;;
62711;SDS011;48772;55.586;37.730;2023-11-19T05:06:59;34.27;;;13.30;;
62711;SDS011;48772;55.586;37.730;2023-11-19T05:09:37;31.50;;;12.90;;
62711;SDS011;48772;55.586;37.730;2023-11-19T05:12:19;31.23;;;11.67;;
62711;SDS011;48772;55.586;37.730;2023-11-19T05:15:01;28.67;;;12.20;;
62711;SDS011;48772;55.586;37.730;2023-11-19T05:17:42;31.23;;;14.07;;
62711;SDS011;48772;55.586;37.730;2023-11-19T05:20:37;24.55;;;11.70;;
62711;SDS011;48772;55.586;37.730;2023-11-19T05:23:19;26.30;;;12.53;;
62711;SDS011;48772;55.586;37.730;2023-11-19T05:26:31;29.00;;;12.93;;
62711;SDS011;48772;55.586;37.730;2023-11-19T05:28:57;34.37;;;14.37;;
62711;SDS011;48772;55.586;37.730;2023-11-19T05:31:22;36.47;;;15.77;;
62711;SDS011;48772;55.586;37.730;2023-11-19T05:33:48;36.03;;;16.70;;
62711;SDS011;48772;55.586;37.730;2023-11-19T05:36:14;25.53;;;13.20;;
62711;SDS011;48772;55.586;37.730;2023-11-19T05:38:40;14.67;;;8.47;;
62711;SDS011;48772;55.586;37.730;2023-11-19T05:41:06;67.13;;;29.03;;
62711;SDS011;48772;55.586;37.730;2023-11-19T05:43:32;29.10;;;14.87;;
62711;SDS011;48772;55.586;37.730;2023-11-19T05:45:58;32.63;;;14.93;;
62711;SDS011;48772;55.586;37.730;2023-11-19T05:48:25;32.47;;;15.20;;
62711;SDS011;48772;55.586;37.730;2023-11-19T05:50:51;42.10;;;16.10;;
62711;SDS011;48772;55.586;37.730;2023-11-19T05:53:17;31.37;;;15.37;;
62711;SDS011;48772;55.586;37.730;2023-11-19T05:55:43;31.80;;;14.93;;
62711;SDS011;48772;55.586;37.730;2023-11-19T05:58:20;29.97;;;14.13;;
62711;SDS011;48772;55.586;37.730;2023-11-19T06:00:48;32.73;;;16.30;;
62711;SDS011;48772;55.586;37.730;2023-11-19T06:03:16;34.10;;;15.20;;
62711;SDS011;48772;55.586;37.730;2023-11-19T06:05:44;29.90;;;15.93;;
62711;SDS011;48772;55.586;37.730;2023-11-19T06:08:11;35.93;;;16.77;;
62711;SDS011;48772;55.586;37.730;2023-11-19T06:10:39;35.78;;;15.52;;
62711;SDS011;48772;55.586;37.730;2023-11-19T06:13:05;34.13;;;15.75;;
62711;SDS011;48772;55.586;37.730;2023-11-19T06:15:32;35.65;;;15.50;;
62711;SDS011;48772;55.586;37.730;2023-11-19T06:17:59;35.37;;;14.57;;
62711;SDS011;48772;55.586;37.730;2023-11-19T06:20:26;20.27;;;9.50;;
62711;SDS011;48772;55.586;37.730;2023-11-19T06:22:54;44.90;;;17.43;;
62711;SDS011;48772;55.586;37.730;2023-11-19T06:25:20;23.47;;;12.20;;
62711;SDS011;48772;55.586;37.730;2023-11-19T06:27:46;20.93;;;10.37;;
62711;SDS011;48772;55.586;37.730;2023-11-19T06:30:12;21.67;;;10.77;;
62711;SDS011;48772;55.586;37.730;2023-11-19T06:32:38;37.43;;;15.93;;
62711;SDS011;48772;55.586;37.730;2023-11-19T06:35:04;30.63;;;16.00;;
62711;SDS011;48772;55.586;37.730;2023-11-19T06:37:30;27.07;;;13.93;;
62711;SDS011;48772;55.586;37.730;2023-11-19T06:39:56;31.03;;;13.30;;
62711;SDS011;48772;55.586;37.730;2023-11-19T06:42:22;28.73;;;12.93;;
62711;SDS011;48772;55.586;37.730;2023-11-19T06:44:48;32.40;;;15.07;;
62711;SDS011;48772;55.586;37.730;2023-11-19T06:47:13;21.47;;;10.93;;
62711;SDS011;48772;55.586;37.730;2023-11-19T06:49:39;25.73;;;11.88;;
62711;SDS011;48772;55.586;37.730;2023-11-19T06:52:05;27.58;;;13.63;;
62711;SDS011;48772;55.586;37.730;2023-11-19T06:54:31;14.00;;;7.00;;
62711;SDS011;48772;55.586;37.730;2023-11-19T06:56:57;18.47;;;9.00;;
62711;SDS011;48772;55.586;37.730;2023-11-19T06:59:23;31.20;;;14.25;;
62711;SDS011;48772;55.586;37.730;2023-11-19T07:01:49;24.23;;;12.20;;
62711;SDS011;48772;55.586;37.730;2023-11-19T07:04:14;27.90;;;13.55;;
62711;SDS011;48772;55.586;37.730;2023-11-19T07:06:40;27.02;;;13.82;;
62711;SDS011;48772;55.586;37.730;2023-11-19T07:09:07;28.90;;;14.35;;
62711;SDS011;48772;55.586;37.730;2023-11-19T07:11:36;28.10;;;13.93;;
62711;SDS011;48772;55.586;37.730;2023-11-19T07:14:04;25.35;;;12.55;;
62711;SDS011;48772;55.586;37.730;2023-11-19T07:16:32;30.75;;;14.18;;
62711;SDS011;48772;55.586;37.730;2023-11-19T07:19:00;27.67;;;13.23;;
62711;SDS011;48772;55.586;37.730;2023-11-19T07:21:26;25.73;;;12.35;;
62711;SDS011;48772;55.586;37.730;2023-11-19T07:23:55;23.02;;;11.93;;
62711;SDS011;48772;55.586;37.730;2023-11-19T07:26:22;39.20;;;12.68;;
62711;SDS011;48772;55.586;37.730;2023-11-19T07:28:51;21.00;;;9.70;;
62711;SDS011;48772;55.586;37.730;2023-11-19T07:31:17;28.38;;;13.18;;
62711;SDS011;48772;55.586;37.730;2023-11-19T07:33:46;32.63;;;13.73;;
62711;SDS011;48772;55.586;37.730;2023-11-19T07:36:13;25.15;;;10.23;;
62711;SDS011;48772;55.586;37.730;2023-11-19T07:38:39;33.05;;;14.07;;
62711;SDS011;48772;55.586;37.730;2023-11-19T07:41:05;33.33;;;16.40;;
62711;SDS011;48772;55.586;37.730;2023-11-19T07:43:32;40.70;;;16.17;;
62711;SDS011;48772;55.586;37.730;2023-11-19T07:45:58;43.72;;;18.30;;
62711;SDS011;48772;55.586;37.730;2023-11-19T07:48:25;38.83;;;17.20;;
62711;SDS011;48772;55.586;37.730;2023-11-19T07:50:54;42.28;;;18.83;;
62711;SDS011;48772;55.586;37.730;2023-11-19T07:53:20;45.40;;;18.08;;
62711;SDS011;48772;55.586;37.730;2023-11-19T07:55:46;42.50;;;18.25;;
62711;SDS011;48772;55.586;37.730;2023-11-19T07:58:12;39.00;;;16.65;;
62711;SDS011;48772;55.586;37.730;2023-11-19T08:00:38;31.85;;;13.45;;
62711;SDS011;48772;55.586;37.730;2023-11-19T08:03:04;32.85;;;13.98;;
62711;SDS011;48772;55.586;37.730;2023-11-19T08:05:33;21.10;;;9.43;;
62711;SDS011;48772;55.586;37.730;2023-11-19T08:07:59;26.17;;;12.82;;
62711;SDS011;48772;55.586;37.730;2023-11-19T08:10:24;28.30;;;11.82;;
62711;SDS011;48772;55.586;37.730;2023-11-19T08:12:50;29.52;;;13.20;;
62711;SDS011;48772;55.586;37.730;2023-11-19T08:15:16;16.80;;;8.95;;
62711;SDS011;48772;55.586;37.730;2023-11-19T08:17:42;24.73;;;10.38;;
62711;SDS011;48772;55.586;37.730;2023-11-19T08:20:08;18.85;;;10.25;;
62711;SDS011;48772;55.586;37.730;2023-11-19T08:22:38;21.65;;;9.60;;
62711;SDS011;48772;55.586;37.730;2023-11-19T08:25:04;20.40;;;9.10;;
62711;SDS011;48772;55.586;37.730;2023-11-19T08:27:31;15.63;;;7.50;;
62711;SDS011;48772;55.586;37.730;2023-11-19T08:34:30;8.32;;;5.28;;
62711;SDS011;48772;55.586;37.730;2023-11-19T08:37:00;7.88;;;4.32;;
62711;SDS011;48772;55.586;37.730;2023-11-19T08:39:37;7.53;;;4.57;;
62711;SDS011;48772;55.586;37.730;2023-11-19T08:42:07;10.88;;;6.15;;
62711;SDS011;48772;55.586;37.730;2023-11-19T08:44:34;12.90;;;5.65;;
62711;SDS011;48772;55.586;37.730;2023-11-19T08:47:20;10.32;;;4.93;;
62711;SDS011;48772;55.586;37.730;2023-11-19T08:49:48;10.23;;;5.10;;
62711;SDS011;48772;55.586;37.730;2023-11-19T08:52:17;11.20;;;5.78;;
62711;SDS011;48772;55.586;37.730;2023-11-19T08:54:43;9.57;;;5.00;;
62711;SDS011;48772;55.586;37.730;2023-11-19T08:57:09;10.13;;;5.05;;
62711;SDS011;48772;55.586;37.730;2023-11-19T08:59:35;12.20;;;4.93;;
62711;SDS011;48772;55.586;37.730;2023-11-19T09:02:04;9.15;;;4.07;;
62711;SDS011;48772;55.586;37.730;2023-11-19T09:04:30;10.13;;;5.38;;
62711;SDS011;48772;55.586;37.730;2023-11-19T09:06:59;9.95;;;4.30;;
62711;SDS011;48772;55.586;37.730;2023-11-19T09:09:25;8.00;;;4.70;;
62711;SDS011;48772;55.586;37.730;2023-11-19T09:11:51;10.50;;;4.53;;
62711;SDS011;48772;55.586;37.730;2023-11-19T09:14:17;6.78;;;3.55;;
62711;SDS011;48772;55.586;37.730;2023-11-19T09:16:44;6.75;;;3.50;;
62711;SDS011;48772;55.586;37.730;2023-11-19T09:19:10;5.65;;;3.67;;
62711;SDS011;48772;55.586;37.730;2023-11-19T09:21:36;6.28;;;3.35;;
62711;SDS011;48772;55.586;37.730;2023-11-19T09:24:04;9.82;;;3.75;;
62711;SDS011;48772;55.586;37.730;2023-11-19T09:26:30;7.03;;;4.53;;
62711;SDS011;48772;55.586;37.730;2023-11-19T09:28:56;6.95;;;4.20;;
62711;SDS011;48772;55.586;37.730;2023-11-19T09:31:22;12.07;;;4.22;;
62711;SDS011;48772;55.586;37.730;2023-11-19T09:33:48;7.22;;;3.92;;
62711;SDS011;48772;55.586;37.730;2023-11-19T09:36:14;9.82;;;3.97;;
62711;SDS011;48772;55.586;37.730;2023-11-19T09:38:43;7.97;;;4.25;;
62711;SDS011;48772;55.586;37.730;2023-11-19T09:41:09;6.50;;;3.80;;
62711;SDS011;48772;55.586;37.730;2023-11-19T09:43:38;7.28;;;3.78;;
62711;SDS011;48772;55.586;37.730;2023-11-19T09:46:06;6.00;;;3.42;;
62711;SDS011;48772;55.586;37.730;2023-11-19T09:48:37;7.60;;;3.67;;
62711;SDS011;48772;55.586;37.730;2023-11-19T09:51:07;6.47;;;4.47;;
62711;SDS011;48772;55.586;37.730;2023-11-19T09:53:34;10.73;;;3.95;;
62711;SDS011;48772;55.586;37.730;2023-11-19T09:56:05;14.27;;;4.63;;
62711;SDS011;48772;55.586;37.730;2023-11-19T09:58:33;6.45;;;4.53;;
62711;SDS011;48772;55.586;37.730;2023-11-19T10:00:59;5.40;;;4.10;;
62711;SDS011;48772;55.586;37.730;2023-11-19T10:03:32;9.52;;;5.10;;
62711;SDS011;48772;55.586;37.730;2023-11-19T10:06:10;9.32;;;5.38;;
62711;SDS011;48772;55.586;37.730;2023-11-19T10:08:37;9.10;;;5.30;;
62711;SDS011;48772;55.586;37.730;2023-11-19T10:11:08;6.15;;;4.22;;
62711;SDS011;48772;55.586;37.730;2023-11-19T10:13:37;8.88;;;4.88;;
62711;SDS011;48772;55.586;37.730;2023-11-19T10:16:07;8.20;;;3.88;;
62711;SDS011;48772;55.586;37.730;2023-11-19T10:18:34;10.35;;;4.63;;
62711;SDS011;48772;55.586;37.730;2023-11-19T10:21:04;12.52;;;5.40;;
62711;SDS011;48772;55.586;37.730;2023-11-19T10:23:31;8.15;;;5.13;;
62711;SDS011;48772;55.586;37.730;2023-11-19T10:26:14;8.65;;;5.10;;
62711;SDS011;48772;55.586;37.730;2023-11-19T10:28:39;7.22;;;4.65;;
62711;SDS011;48772;55.586;37.730;2023-11-19T10:31:18;7.57;;;4.75;;
62711;SDS011;48772;55.586;37.730;2023-11-19T10:33:46;12.02;;;5.72;;
62711;SDS011;48772;55.586;37.730;2023-11-19T10:36:12;10.73;;;4.88;;
62711;SDS011;48772;55.586;37.730;2023-11-19T10:38:39;9.52;;;5.32;;
62711;SDS011;48772;55.586;37.730;2023-11-19T10:41:06;8.45;;;5.32;;
62711;SDS011;48772;55.586;37.730;2023-11-19T10:43:42;10.23;;;5.28;;
62711;SDS011;48772;55.586;37.730;2023-11-19T10:46:12;8.60;;;5.40;;
62711;SDS011;48772;55.586;37.730;2023-11-19T10:48:39;8.18;;;5.40;;
62711;SDS011;48772;55.586;37.730;2023-11-19T10:51:06;7.70;;;4.10;;
62711;SDS011;48772;55.586;37.730;2023-11-19T10:53:33;9.40;;;4.68;;
62711;SDS011;48772;55.586;37.730;2023-11-19T10:56:02;13.65;;;6.05;;
62711;SDS011;48772;55.586;37.730;2023-11-19T10:58:33;9.07;;;5.35;;
62711;SDS011;48772;55.586;37.730;2023-11-19T11:01:03;9.57;;;4.13;;
62711;SDS011;48772;55.586;37.730;2023-11-19T11:03:40;8.27;;;4.88;;
62711;SDS011;48772;55.586;37.730;2023-11-19T11:06:08;13.18;;;6.00;;
62711;SDS011;48772;55.586;37.730;2023-11-19T11:08:36;11.60;;;6.20;;
62711;SDS011;48772;55.586;37.730;2023-11-19T11:11:03;10.70;;;5.80;;
62711;SDS011;48772;55.586;37.730;2023-11-19T11:13:31;8.40;;;4.75;;
62711;SDS011;48772;55.586;37.730;2023-11-19T11:15:59;10.82;;;6.07;;
62711;SDS011;48772;55.586;37.730;2023-11-19T11:18:26;15.85;;;7.82;;
62711;SDS011;48772;55.586;37.730;2023-11-19T11:20:59;16.48;;;6.75;;
62711;SDS011;48772;55.586;37.730;2023-11-19T11:37:55;11.50;;;6.13;;
62711;SDS011;48772;55.586;37.730;2023-11-19T11:40:27;13.70;;;6.75;;
62711;SDS011;48772;55.586;37.730;2023-11-19T11:42:53;12.02;;;6.40;;
62711;SDS011;48772;55.586;37.730;2023-11-19T11:45:19;11.13;;;6.30;;
62711;SDS011;48772;55.586;37.730;2023-11-19T11:48:06;9.75;;;5.93;;
62711;SDS011;48772;55.586;37.730;2023-11-19T11:50:35;9.88;;;6.22;;
62711;SDS011;48772;55.586;37.730;2023-11-19T11:53:16;17.80;;;6.95;;
62711;SDS011;48772;55.586;37.730;2023-11-19T11:58:21;11.38;;;6.43;;
62711;SDS011;48772;55.586;37.730;2023-11-19T12:01:07;11.18;;;5.45;;
62711;SDS011;48772;55.586;37.730;2023-11-19T12:03:33;9.23;;;6.07;;
62711;SDS011;48772;55.586;37.730;2023-11-19T12:05:59;21.67;;;8.73;;
62711;SDS011;48772;55.586;37.730;2023-11-19T12:08:26;10.75;;;5.63;;
62711;SDS011;48772;55.586;37.730;2023-11-19T12:10:55;9.40;;;5.63;;
62711;SDS011;48772;55.586;37.730;2023-11-19T12:13:24;13.70;;;7.18;;
62711;SDS011;48772;55.586;37.730;2023-11-19T12:16:09;15.25;;;7.43;;
62711;SDS011;48772;55.586;37.730;2023-11-19T12:18:40;10.15;;;6.03;;
62711;SDS011;48772;55.586;37.730;2023-11-19T12:21:10;14.55;;;7.40;;
62711;SDS011;48772;55.586;37.730;2023-11-19T12:23:57;15.05;;;7.70;;
62711;SDS011;48772;55.586;37.730;2023-11-19T12:26:35;14.57;;;8.07;;
62711;SDS011;48772;55.586;37.730;2023-11-19T12:29:04;19.02;;;3.42;;
62711;SDS011;48772;55.586;37.730;2023-11-19T12:31:32;15.75;;;8.48;;
62711;SDS011;48772;55.586;37.730;2023-11-19T12:34:45;18.33;;;8.10;;
62711;SDS011;48772;55.586;37.730;2023-11-19T12:37:11;18.27;;;8.95;;
62711;SDS011;48772;55.586;37.730;2023-11-19T12:39:38;15.45;;;9.05;;
62711;SDS011;48772;55.586;37.730;2023-11-19T12:42:05;23.60;;;10.75;;
62711;SDS011;48772;55.586;37.730;2023-11-19T12:44:31;24.73;;;10.10;;
62711;SDS011;48772;55.586;37.730;2023-11-19T12:47:08;20.50;;;9.50;;
62711;SDS011;48772;55.586;37.730;2023-11-19T12:49:38;20.27;;;9.13;;
62711;SDS011;48772;55.586;37.730;2023-11-19T12:52:11;24.45;;;9.85;;
62711;SDS011;48772;55.586;37.730;2023-11-19T12:54:38;20.15;;;9.95;;
62711;SDS011;48772;55.586;37.730;2023-11-19T12:57:04;16.15;;;9.30;;
62711;SDS011;48772;55.586;37.730;2023-11-19T12:59:31;19.90;;;10.35;;
62711;SDS011;48772;55.586;37.730;2023-11-19T13:02:00;24.48;;;10.00;;
62711;SDS011;48772;55.586;37.730;2023-11-19T13:04:28;16.88;;;9.88;;
62711;SDS011;48772;55.586;37.730;2023-11-19T13:07:00;17.83;;;9.98;;
62711;SDS011;48772;55.586;37.730;2023-11-19T13:09:29;24.35;;;10.25;;
62711;SDS011;48772;55.586;37.730;2023-11-19T13:11:57;20.38;;;10.55;;
62711;SDS011;48772;55.586;37.730;2023-11-19T13:14:35;21.15;;;10.70;;
62711;SDS011;48772;55.586;37.730;2023-11-19T13:17:02;18.70;;;9.93;;
62711;SDS011;48772;55.586;37.730;2023-11-19T13:19:28;22.80;;;8.07;;
62711;SDS011;48772;55.586;37.730;2023-11-19T13:21:58;15.35;;;9.05;;
62711;SDS011;48772;55.586;37.730;2023-11-19T13:24:23;19.42;;;9.65;;
62711;SDS011;48772;55.586;37.730;2023-11-19T13:26:49;25.30;;;9.95;;
62711;SDS011;48772;55.586;37.730;2023-11-19T13:29:15;17.85;;;9.70;;
62711;SDS011;48772;55.586;37.730;2023-11-19T13:31:41;18.60;;;10.48;;
62711;SDS011;48772;55.586;37.730;2023-11-19T13:34:07;17.52;;;9.70;;
62711;SDS011;48772;55.586;37.730;2023-11-19T13:36:33;20.08;;;9.75;;
62711;SDS011;48772;55.586;37.730;2023-11-19T13:38:59;22.50;;;10.07;;
62711;SDS011;48772;55.586;37.730;2023-11-19T13:41:26;23.63;;;10.70;;
62711;SDS011;48772;55.586;37.730;2023-11-19T13:43:52;28.05;;;10.32;;
62711;SDS011;48772;55.586;37.730;2023-11-19T13:46:19;27.15;;;9.80;;
62711;SDS011;48772;55.586;37.730;2023-11-19T13:48:45;19.63;;;10.43;;
62711;SDS011;48772;55.586;37.730;2023-11-19T13:51:11;30.58;;;9.60;;
62711;SDS011;48772;55.586;37.730;2023-11-19T13:53:37;23.00;;;11.48;;
62711;SDS011;48772;55.586;37.730;2023-11-19T13:56:03;15.88;;;8.95;;
62711;SDS011;48772;55.586;37.730;2023-11-19T13:58:29;23.83;;;11.00;;
62711;SDS011;48772;55.586;37.730;2023-11-19T14:00:55;22.92;;;10.52;;
62711;SDS011;48772;55.586;37.730;2023-11-19T14:03:20;19.15;;;10.00;;
62711;SDS011;48772;55.586;37.730;2023-11-19T14:05:46;14.30;;;8.40;;
62711;SDS011;48772;55.586;37.730;2023-11-19T14:08:12;23.38;;;11.57;;
62711;SDS011;48772;55.586;37.730;2023-11-19T14:10:38;24.63;;;12.07;;
62711;SDS011;48772;55.586;37.730;2023-11-19T14:13:08;15.80;;;8.80;;
62711;SDS011;48772;55.586;37.730;2023-11-19T14:15:34;21.13;;;10.65;;
62711;SDS011;48772;55.586;37.730;2023-11-19T14:18:01;21.10;;;11.35;;
62711;SDS011;48772;55.586;37.730;2023-11-19T14:20:28;23.52;;;11.73;;
62711;SDS011;48772;55.586;37.730;2023-11-19T14:22:54;21.67;;;10.88;;
62711;SDS011;48772;55.586;37.730;2023-11-19T14:25:20;24.75;;;12.15;;
62711;SDS011;48772;55.586;37.730;2023-11-19T14:27:47;22.42;;;11.55;;
62711;SDS011;48772;55.586;37.730;2023-11-19T14:30:13;26.08;;;11.85;;
62711;SDS011;48772;55.586;37.730;2023-11-19T14:32:40;21.90;;;10.23;;
62711;SDS011;48772;55.586;37.730;2023-11-19T14:35:09;19.98;;;11.98;;
62711;SDS011;48772;55.586;37.730;2023-11-19T14:37:35;18.85;;;10.00;;
62711;SDS011;48772;55.586;37.730;2023-11-19T14:40:01;28.15;;;14.43;;
62711;SDS011;48772;55.586;37.730;2023-11-19T14:42:32;24.40;;;11.38;;
62711;SDS011;48772;55.586;37.730;2023-11-19T14:44:58;22.30;;;11.57;;